createdAt,value
2017-05-10T00:00:08.122Z,3.90
2017-05-10T00:02:37.849Z,2.72
2017-05-10T00:05:07.356Z,5.55
2017-05-10T00:07:36.967Z,8.38
2017-05-10T00:10:06.644Z,5.08
2017-05-10T00:12:36.490Z,3.33
2017-05-10T00:15:06.011Z,4.25
2017-05-10T00:17:35.703Z,9.80
2017-05-10T00:20:05.057Z,9.32
2017-05-10T00:22:34.821Z,13.55
2017-05-10T00:25:04.048Z,4.33
2017-05-10T00:27:33.527Z,6.50
2017-05-10T00:30:03.137Z,7.38
2017-05-10T00:32:32.542Z,3.22
2017-05-10T00:35:01.811Z,6.78
2017-05-10T00:37:31.123Z,4.28
2017-05-10T00:40:00.946Z,5.28
2017-05-10T00:42:30.357Z,11.72
2017-05-10T00:45:00.071Z,4.37
2017-05-10T00:47:29.342Z,7.92
2017-05-10T00:49:58.688Z,6.88
2017-05-10T00:52:27.964Z,8.80
2017-05-10T00:54:57.259Z,8.75
2017-05-10T00:57:27.935Z,4.00
2017-05-10T00:59:58.331Z,6.02
2017-05-10T01:02:27.930Z,7.00
2017-05-10T01:04:57.556Z,9.27
2017-05-10T01:07:26.859Z,9.45
2017-05-10T01:09:56.981Z,11.18
2017-05-10T01:12:26.468Z,10.22
2017-05-10T01:14:56.392Z,7.75
2017-05-10T01:17:25.904Z,8.07
2017-05-10T01:19:55.621Z,8.50
2017-05-10T01:22:25.126Z,6.22
2017-05-10T01:24:54.410Z,8.20
2017-05-10T01:27:24.135Z,6.35
2017-05-10T01:29:53.620Z,7.45
2017-05-10T01:32:23.149Z,8.03
2017-05-10T01:34:52.450Z,6.40
2017-05-10T01:37:21.944Z,8.23
2017-05-10T01:39:51.188Z,10.68
2017-05-10T01:42:20.764Z,9.57
2017-05-10T01:44:50.047Z,9.58
2017-05-10T01:47:19.572Z,8.58
2017-05-10T01:49:48.956Z,6.98
2017-05-10T01:52:18.267Z,7.15
2017-05-10T01:54:47.684Z,12.58
2017-05-10T01:57:17.189Z,6.53
2017-05-10T01:59:47.089Z,8.25
2017-05-10T02:02:16.612Z,6.32
2017-05-10T02:04:45.927Z,7.33
2017-05-10T02:07:15.522Z,10.77
2017-05-10T02:09:44.808Z,9.28
2017-05-10T02:12:14.412Z,5.23
2017-05-10T02:14:43.728Z,7.35
2017-05-10T02:17:13.033Z,6.02
2017-05-10T02:19:42.334Z,6.82
2017-05-10T02:22:11.636Z,9.55
2017-05-10T02:24:41.758Z,5.57
2017-05-10T02:27:11.047Z,6.27
2017-05-10T02:29:40.752Z,4.70
2017-05-10T02:32:10.277Z,7.58
2017-05-10T02:34:39.782Z,7.22
2017-05-10T02:37:09.289Z,6.53
2017-05-10T02:39:38.648Z,5.82
2017-05-10T02:42:08.364Z,6.60
2017-05-10T02:44:38.217Z,7.82
2017-05-10T02:47:07.520Z,4.43
2017-05-10T02:49:37.030Z,8.70
2017-05-10T02:52:06.533Z,4.18
2017-05-10T02:54:36.038Z,6.23
2017-05-10T02:57:05.339Z,4.37
2017-05-10T02:59:34.639Z,7.38
2017-05-10T03:02:03.945Z,5.50
2017-05-10T03:04:34.267Z,6.82
2017-05-10T03:07:04.119Z,7.00
2017-05-10T03:09:33.896Z,7.62
2017-05-10T03:12:03.141Z,4.08
2017-05-10T03:14:32.484Z,5.88
2017-05-10T03:17:01.799Z,5.25
2017-05-10T03:19:31.029Z,6.27
2017-05-10T03:22:00.613Z,7.78
2017-05-10T03:24:29.996Z,5.07
2017-05-10T03:26:59.199Z,5.48
2017-05-10T03:29:28.513Z,4.33
2017-05-10T03:31:58.020Z,6.20
2017-05-10T03:34:27.333Z,9.90
2017-05-10T03:36:56.707Z,6.37
2017-05-10T03:39:26.333Z,4.55
2017-05-10T03:41:55.839Z,6.00
2017-05-10T03:44:25.966Z,7.13
2017-05-10T03:46:55.876Z,3.70
2017-05-10T03:49:25.180Z,8.00
2017-05-10T03:51:54.469Z,3.78
2017-05-10T03:54:23.782Z,4.72
2017-05-10T03:56:53.087Z,5.80
2017-05-10T03:59:22.693Z,5.28
2017-05-10T04:01:52.080Z,4.30
2017-05-10T04:04:21.601Z,4.45
2017-05-10T04:06:51.724Z,3.27
2017-05-10T04:09:21.023Z,5.37
2017-05-10T04:11:50.512Z,4.90
2017-05-10T04:14:19.837Z,3.73
2017-05-10T04:16:49.324Z,6.05
2017-05-10T04:19:18.642Z,9.40
2017-05-10T04:21:47.941Z,6.32
2017-05-10T04:24:17.246Z,7.35
2017-05-10T04:26:46.750Z,3.83
2017-05-10T04:29:16.255Z,3.13
2017-05-10T04:31:46.173Z,6.57
2017-05-10T04:34:15.517Z,7.25
2017-05-10T04:36:45.387Z,4.98
2017-05-10T04:39:15.102Z,4.43
2017-05-10T04:41:44.402Z,4.82
2017-05-10T04:44:13.906Z,3.58
2017-05-10T04:46:43.414Z,6.62
2017-05-10T04:49:13.014Z,5.12
2017-05-10T04:51:42.834Z,3.98
2017-05-10T04:54:12.197Z,6.15
2017-05-10T04:56:42.666Z,4.02
2017-05-10T04:59:12.372Z,11.52
2017-05-10T05:01:41.886Z,4.02
2017-05-10T05:04:11.595Z,6.23
2017-05-10T05:06:41.306Z,6.30
2017-05-10T05:09:10.813Z,4.52
2017-05-10T05:11:40.117Z,13.85
2017-05-10T05:14:10.031Z,5.25
2017-05-10T05:16:39.947Z,5.33
2017-05-10T05:19:09.249Z,7.18
2017-05-10T05:21:38.575Z,7.95
2017-05-10T05:24:08.058Z,4.15
2017-05-10T05:26:37.770Z,6.25
2017-05-10T05:29:07.277Z,7.18
2017-05-10T05:31:36.783Z,6.70
2017-05-10T05:34:06.897Z,3.50
2017-05-10T05:36:36.509Z,8.35
2017-05-10T05:39:06.117Z,4.88
2017-05-10T05:41:35.624Z,5.55
2017-05-10T05:44:04.908Z,5.42
2017-05-10T05:47:03.759Z,7.87
2017-05-10T05:49:33.428Z,6.53
2017-05-10T05:52:03.111Z,6.32
2017-05-10T05:54:32.749Z,7.58
2017-05-10T05:57:03.587Z,5.37
2017-05-10T05:59:33.163Z,6.17
2017-05-10T06:02:02.804Z,8.17
2017-05-10T06:04:32.065Z,7.22
2017-05-10T06:07:01.621Z,6.55
2017-05-10T06:09:30.915Z,12.13
2017-05-10T06:12:00.221Z,5.23
2017-05-10T06:14:29.926Z,11.40
2017-05-10T06:17:15.002Z,5.23
2017-05-10T06:19:44.508Z,8.27
2017-05-10T06:22:14.264Z,7.55
2017-05-10T06:24:43.750Z,4.97
2017-05-10T06:27:13.228Z,9.52
2017-05-10T06:29:42.501Z,5.92
2017-05-10T06:32:11.791Z,6.14
2017-05-10T06:34:41.105Z,3.76
2017-05-10T06:37:10.535Z,9.48
2017-05-10T06:39:40.060Z,6.72
2017-05-10T06:42:09.777Z,5.28
2017-05-10T06:44:39.321Z,5.80
2017-05-10T06:47:09.024Z,5.26
2017-05-10T06:49:38.477Z,6.54
2017-05-10T06:52:07.983Z,6.30
2017-05-10T06:54:37.905Z,7.16
2017-05-10T06:57:07.202Z,5.14
2017-05-10T06:59:36.718Z,6.22
2017-05-10T07:02:06.009Z,4.02
2017-05-10T07:04:35.621Z,3.96
2017-05-10T07:07:05.126Z,4.94
2017-05-10T07:09:35.722Z,6.00
2017-05-10T07:12:04.981Z,3.14
2017-05-10T07:14:41.695Z,2.70
2017-05-10T07:17:11.816Z,4.72
2017-05-10T07:19:41.068Z,2.90
2017-05-10T07:22:10.767Z,4.24
2017-05-10T07:24:40.477Z,2.36
2017-05-10T07:27:09.770Z,2.22
2017-05-10T07:29:39.898Z,2.92
2017-05-10T07:32:09.813Z,3.20
2017-05-10T07:34:39.325Z,4.92
2017-05-10T07:37:08.828Z,2.90
2017-05-10T07:39:38.333Z,4.16
2017-05-10T07:42:07.636Z,6.90
2017-05-10T07:44:37.348Z,6.06
2017-05-10T07:47:06.624Z,13.06
2017-05-10T07:49:38.304Z,3.66
2017-05-10T07:52:07.624Z,4.42
2017-05-10T07:54:37.010Z,3.48
2017-05-10T07:57:06.515Z,5.06
2017-05-10T07:59:36.021Z,3.80
2017-05-10T08:02:05.322Z,2.72
2017-05-10T08:04:34.685Z,4.32
2017-05-10T08:07:04.148Z,2.38
2017-05-10T08:09:33.645Z,1.56
2017-05-10T08:12:03.349Z,2.40
2017-05-10T08:14:32.654Z,2.14
2017-05-10T08:17:01.952Z,1.60
2017-05-10T08:19:31.462Z,1.44
2017-05-10T08:22:00.895Z,1.82
2017-05-10T08:24:30.267Z,1.22
2017-05-10T08:26:59.769Z,1.68
2017-05-10T08:29:29.280Z,1.46
2017-05-10T08:31:58.991Z,1.06
2017-05-10T08:34:35.281Z,1.30
2017-05-10T08:37:05.381Z,1.36
2017-05-10T08:39:35.095Z,1.36
2017-05-10T08:42:05.005Z,0.74
2017-05-10T08:44:34.509Z,1.42
2017-05-10T08:47:04.004Z,1.88
2017-05-10T08:49:33.521Z,1.50
2017-05-10T08:52:02.823Z,1.68
2017-05-10T08:54:32.534Z,1.34
2017-05-10T08:57:02.450Z,1.06
2017-05-10T08:59:31.956Z,0.96
2017-05-10T09:02:01.249Z,0.92
2017-05-10T09:04:30.565Z,0.72
2017-05-10T09:06:59.862Z,1.18
2017-05-10T09:09:29.367Z,2.30
2017-05-10T09:11:58.669Z,1.28
2017-05-10T09:14:27.971Z,1.24
2017-05-10T09:16:57.273Z,1.70
2017-05-10T09:19:26.777Z,1.54
2017-05-10T09:21:56.284Z,2.64
2017-05-10T09:24:26.201Z,2.00
2017-05-10T09:26:56.101Z,1.62
2017-05-10T09:29:25.421Z,4.20
2017-05-10T09:31:54.721Z,1.38
2017-05-10T09:34:24.013Z,1.58
2017-05-10T09:36:53.323Z,2.06
2017-05-10T09:39:23.036Z,1.70
2017-05-10T09:41:52.747Z,1.76
2017-05-10T09:44:23.183Z,2.58
2017-05-10T09:46:53.398Z,2.14
2017-05-10T09:49:23.110Z,1.76
2017-05-10T09:51:52.823Z,2.00
2017-05-10T09:54:22.330Z,2.02
2017-05-10T09:56:51.614Z,1.76
2017-05-10T09:59:21.150Z,1.74
2017-05-10T10:01:50.645Z,2.18
2017-05-10T10:04:20.659Z,2.72
2017-05-10T10:06:50.064Z,2.42
2017-05-10T10:09:19.670Z,2.26
2017-05-10T10:11:49.359Z,1.84
2017-05-10T10:14:18.990Z,1.96
2017-05-10T10:16:48.496Z,3.36
2017-05-10T10:19:18.207Z,1.46
2017-05-10T10:21:47.917Z,1.38
2017-05-10T10:24:17.222Z,1.56
2017-05-10T10:26:46.530Z,1.70
2017-05-10T10:29:16.028Z,1.40
2017-05-10T10:31:45.327Z,1.60
2017-05-10T10:34:14.835Z,1.80
2017-05-10T10:36:44.137Z,1.90
2017-05-10T10:39:13.642Z,1.94
2017-05-10T10:41:43.817Z,1.92
2017-05-10T10:44:13.279Z,1.64
2017-05-10T10:46:43.187Z,1.56
2017-05-10T10:49:12.683Z,1.52
2017-05-10T10:51:42.214Z,2.16
2017-05-10T10:54:11.705Z,1.12
2017-05-10T10:56:41.213Z,1.14
2017-05-10T10:59:10.921Z,1.62
2017-05-10T11:01:40.224Z,2.10
2017-05-10T11:04:09.525Z,2.14
2017-05-10T11:06:38.826Z,1.50
2017-05-10T11:09:08.129Z,1.56
2017-05-10T11:11:37.434Z,2.14
2017-05-10T11:14:06.791Z,1.94
2017-05-10T11:16:36.237Z,3.30
2017-05-10T11:19:05.539Z,1.58
2017-05-10T11:21:35.251Z,1.82
2017-05-10T11:24:04.505Z,1.92
2017-05-10T11:26:34.037Z,2.66
2017-05-10T11:29:03.306Z,2.28
2017-05-10T11:31:32.871Z,2.38
2017-05-10T11:34:02.170Z,2.80
2017-05-10T11:36:31.676Z,2.50
2017-05-10T11:39:00.978Z,2.42
2017-05-10T11:41:30.513Z,1.84
2017-05-10T11:43:59.760Z,1.94
2017-05-10T11:46:29.349Z,2.36
2017-05-10T11:48:58.621Z,1.74
2017-05-10T11:51:27.872Z,4.70
2017-05-10T11:53:57.281Z,2.18
2017-05-10T11:56:26.594Z,2.32
2017-05-10T11:58:56.214Z,2.76
2017-05-10T12:01:25.712Z,1.88
2017-05-10T12:07:08.763Z,1.40
2017-05-10T12:09:39.310Z,1.86
2017-05-10T12:12:09.339Z,2.14
2017-05-10T12:14:39.778Z,1.54
2017-05-10T12:17:10.057Z,1.42
2017-05-10T12:19:41.279Z,1.44
2017-05-10T12:22:10.712Z,5.06
2017-05-10T12:24:53.727Z,2.92
2017-05-10T12:27:24.576Z,2.22
2017-05-10T12:29:54.237Z,2.24
2017-05-10T12:32:24.787Z,2.04
2017-05-10T12:34:54.217Z,1.68
2017-05-10T12:37:24.343Z,2.10
2017-05-10T12:39:53.645Z,1.80
2017-05-10T12:42:23.353Z,1.50
2017-05-10T12:44:53.676Z,1.94
2017-05-10T12:47:22.948Z,2.60
2017-05-10T12:49:52.897Z,2.12
2017-05-10T12:52:22.197Z,3.60
2017-05-10T12:54:51.907Z,2.30
2017-05-10T12:57:21.218Z,3.48
2017-05-10T12:59:50.715Z,3.50
2017-05-10T13:02:20.016Z,2.84
2017-05-10T13:04:49.320Z,1.98
2017-05-10T13:07:18.827Z,3.00
2017-05-10T13:09:48.339Z,2.24
2017-05-10T13:12:18.248Z,2.90
2017-05-10T13:14:48.777Z,3.74
2017-05-10T13:17:18.079Z,3.18
2017-05-10T13:19:47.586Z,2.82
2017-05-10T13:22:16.927Z,2.30
2017-05-10T13:24:46.392Z,2.50
2017-05-10T13:27:15.693Z,3.26
2017-05-10T13:29:45.202Z,2.76
2017-05-10T13:32:14.514Z,2.20
2017-05-10T13:34:44.012Z,2.70
2017-05-10T13:37:13.309Z,2.54
2017-05-10T13:39:43.432Z,2.34
2017-05-10T13:42:12.734Z,2.18
2017-05-10T13:44:44.102Z,2.64
2017-05-10T13:47:13.390Z,2.88
2017-05-10T13:49:43.406Z,2.60
2017-05-10T13:52:12.824Z,1.90
2017-05-10T13:54:42.115Z,2.30
2017-05-10T13:57:11.507Z,2.22
2017-05-10T13:59:41.225Z,2.42
2017-05-10T14:02:11.036Z,2.92
2017-05-10T14:04:40.439Z,2.44
2017-05-10T14:07:10.150Z,2.90
2017-05-10T14:09:41.306Z,2.26
2017-05-10T14:12:11.211Z,2.44
2017-05-10T14:14:42.152Z,4.70
2017-05-10T14:17:11.458Z,2.90
2017-05-10T14:19:40.785Z,2.84
2017-05-10T14:22:10.262Z,1.82
2017-05-10T14:24:39.554Z,2.44
2017-05-10T14:27:08.864Z,2.80
2017-05-10T14:29:38.166Z,2.22
2017-05-10T14:32:07.671Z,2.18
2017-05-10T14:34:37.181Z,2.40
2017-05-10T14:37:06.688Z,1.92
2017-05-10T14:39:36.601Z,1.98
2017-05-10T14:42:06.108Z,1.48
2017-05-10T14:44:35.614Z,1.92
2017-05-10T14:47:04.920Z,2.82
2017-05-10T14:49:34.252Z,2.44
2017-05-10T14:52:05.021Z,2.90
2017-05-10T14:54:34.354Z,1.92
2017-05-10T14:57:03.645Z,2.26
2017-05-10T14:59:32.953Z,2.50
2017-05-10T15:02:02.251Z,2.52
2017-05-10T15:04:31.666Z,4.38
2017-05-10T15:07:01.173Z,2.00
2017-05-10T15:09:30.471Z,2.50
2017-05-10T15:11:59.977Z,3.00
2017-05-10T15:14:29.483Z,1.94
2017-05-10T15:16:58.992Z,2.50
2017-05-10T15:19:28.497Z,1.74
2017-05-10T15:21:58.006Z,2.32
2017-05-10T15:24:27.715Z,3.98
2017-05-10T15:26:57.224Z,2.68
2017-05-10T15:29:26.549Z,1.98
2017-05-10T15:31:55.978Z,2.58
2017-05-10T15:34:25.534Z,2.08
2017-05-10T15:36:55.360Z,2.06
2017-05-10T15:39:25.574Z,2.30
2017-05-10T15:41:55.181Z,2.30
2017-05-10T15:44:24.793Z,2.22
2017-05-10T15:46:54.310Z,5.90
2017-05-10T15:49:23.631Z,2.10
2017-05-10T15:51:53.200Z,1.48
2017-05-10T15:54:23.638Z,1.80
2017-05-10T15:56:53.381Z,1.42
2017-05-10T15:59:22.629Z,1.24
2017-05-10T16:01:52.158Z,1.88
2017-05-10T16:04:21.972Z,2.08
2017-05-10T16:06:51.780Z,1.86
2017-05-10T16:09:21.093Z,2.18
2017-05-10T16:11:50.625Z,2.80
2017-05-10T16:14:20.097Z,1.84
2017-05-10T16:16:49.396Z,1.80
2017-05-10T16:19:18.917Z,2.16
2017-05-10T16:21:48.407Z,4.10
2017-05-10T16:24:18.020Z,3.22
2017-05-10T16:26:47.422Z,2.30
2017-05-10T16:29:16.781Z,2.02
2017-05-10T16:31:46.229Z,2.00
2017-05-10T16:34:15.736Z,2.06
2017-05-10T16:36:45.241Z,3.30
2017-05-10T16:39:14.850Z,2.22
2017-05-10T16:41:44.356Z,2.08
2017-05-10T16:44:13.761Z,2.20
2017-05-10T16:46:44.086Z,2.62
2017-05-10T16:49:14.003Z,3.04
2017-05-10T16:51:43.714Z,2.58
2017-05-10T16:54:13.763Z,2.28
2017-05-10T16:56:43.753Z,2.48
2017-05-10T16:59:13.464Z,3.60
2017-05-10T17:01:43.074Z,3.52
2017-05-10T17:04:13.294Z,2.40
2017-05-10T17:06:46.321Z,2.98
2017-05-10T17:09:15.929Z,2.98
2017-05-10T17:11:45.270Z,2.66
2017-05-10T17:14:15.009Z,3.66
2017-05-10T17:16:45.588Z,2.92
2017-05-10T17:19:15.041Z,3.98
2017-05-10T17:21:44.756Z,2.40
2017-05-10T17:24:14.102Z,3.94
2017-05-10T17:26:43.562Z,4.06
2017-05-10T17:29:12.893Z,5.60
2017-05-10T17:31:42.368Z,2.42
2017-05-10T17:34:11.700Z,2.48
2017-05-10T17:36:41.189Z,6.26
2017-05-10T17:39:10.687Z,6.12
2017-05-10T17:41:40.046Z,4.00
2017-05-10T17:44:09.698Z,3.26
2017-05-10T17:46:39.203Z,3.28
2017-05-10T17:49:08.916Z,2.42
2017-05-10T17:51:38.419Z,3.28
2017-05-10T17:54:07.846Z,4.62
2017-05-10T17:56:38.394Z,3.94
2017-05-10T17:59:08.063Z,4.18
2017-05-10T18:01:37.779Z,4.24
2017-05-10T18:04:07.492Z,4.56
2017-05-10T18:06:37.711Z,6.12
2017-05-10T18:09:07.630Z,2.28
2017-05-10T18:11:36.930Z,2.56
2017-05-10T18:14:06.839Z,3.82
2017-05-10T18:16:36.353Z,6.36
2017-05-10T18:19:05.858Z,4.46
2017-05-10T18:21:35.568Z,3.42
2017-05-10T18:24:05.074Z,6.06
2017-05-10T18:26:34.379Z,5.34
2017-05-10T18:29:04.087Z,4.18
2017-05-10T18:31:33.798Z,2.44
2017-05-10T18:34:03.510Z,4.96
2017-05-10T18:36:32.881Z,5.32
2017-05-10T18:39:02.521Z,4.58
2017-05-10T18:41:32.027Z,6.16
2017-05-10T18:44:01.527Z,2.50
2017-05-10T18:46:31.246Z,3.96
2017-05-10T18:49:00.753Z,2.44
2017-05-10T18:51:30.082Z,4.00
2017-05-10T18:53:59.377Z,4.58
2017-05-10T18:56:28.749Z,4.22
2017-05-10T18:58:58.015Z,5.58
2017-05-10T19:01:27.380Z,3.00
2017-05-10T19:06:32.621Z,4.25
2017-05-10T19:09:01.951Z,4.16
2017-05-10T19:11:31.636Z,11.00
2017-05-10T19:14:01.547Z,6.68
2017-05-10T19:16:32.089Z,5.67
2017-05-10T19:19:01.461Z,9.02
2017-05-10T19:21:31.408Z,4.45
2017-05-10T19:24:01.622Z,8.08
2017-05-10T19:26:31.332Z,4.08
2017-05-10T19:29:00.735Z,4.98
2017-05-10T19:31:30.344Z,8.13
2017-05-10T19:33:59.647Z,8.75
2017-05-10T19:36:29.366Z,4.95
2017-05-10T19:38:58.864Z,4.30
2017-05-10T19:41:28.367Z,5.62
2017-05-10T19:43:57.879Z,5.83
2017-05-10T19:46:27.800Z,5.05
2017-05-10T19:48:57.503Z,9.80
2017-05-10T19:51:26.810Z,6.17
2017-05-10T19:53:56.096Z,6.20
2017-05-10T19:56:25.610Z,6.27
2017-05-10T19:58:54.914Z,9.38
2017-05-10T20:01:24.224Z,6.27
2017-05-10T20:03:53.547Z,4.68
2017-05-10T20:06:22.826Z,4.33
2017-05-10T20:08:52.158Z,3.68
2017-05-10T20:11:22.037Z,6.83
2017-05-10T20:13:51.544Z,7.28
2017-05-10T20:16:20.896Z,5.78
2017-05-10T20:18:50.967Z,7.47
2017-05-10T20:21:20.575Z,9.42
2017-05-10T20:23:49.865Z,5.48
2017-05-10T20:26:19.486Z,7.95
2017-05-10T20:28:48.991Z,5.30
2017-05-10T20:31:18.295Z,6.60
2017-05-10T20:33:47.621Z,7.62
2017-05-10T20:36:17.110Z,10.27
2017-05-10T20:38:46.606Z,4.85
2017-05-10T20:41:15.908Z,5.78
2017-05-10T20:43:45.643Z,5.63
2017-05-10T20:46:15.127Z,8.38
2017-05-10T20:48:44.633Z,6.37
2017-05-10T20:51:13.942Z,9.32
2017-05-10T20:53:43.647Z,8.85
2017-05-10T20:56:13.153Z,7.70
2017-05-10T20:58:46.979Z,9.13
2017-05-10T21:01:16.533Z,6.18
2017-05-10T21:03:46.127Z,12.13
2017-05-10T21:06:15.453Z,9.08
2017-05-10T21:08:44.988Z,6.55
2017-05-10T21:11:14.493Z,8.77
2017-05-10T21:13:43.994Z,8.83
2017-05-10T21:16:13.535Z,7.97
2017-05-10T21:18:43.114Z,8.43
2017-05-10T21:21:12.518Z,8.20
2017-05-10T21:23:41.922Z,8.87
2017-05-10T21:26:12.151Z,9.35
2017-05-10T21:28:41.904Z,6.45
2017-05-10T21:31:15.717Z,7.92
2017-05-10T21:33:45.002Z,12.43
2017-05-10T21:36:14.465Z,10.75
2017-05-10T21:38:43.764Z,11.62
2017-05-10T21:41:13.266Z,11.03
2017-05-10T21:43:43.193Z,9.68
2017-05-10T21:46:12.597Z,10.12
2017-05-10T21:48:42.101Z,14.00
2017-05-10T21:51:11.812Z,11.20
2017-05-10T21:53:41.523Z,24.75
2017-05-10T21:56:11.030Z,16.25
2017-05-10T21:58:40.928Z,16.95
2017-05-10T22:01:11.067Z,16.00
2017-05-10T22:03:40.580Z,16.95
2017-05-10T22:06:10.084Z,17.90
2017-05-10T22:08:39.369Z,16.63
2017-05-10T22:11:08.892Z,17.65
2017-05-10T22:13:45.362Z,14.95
2017-05-10T22:16:15.478Z,13.77
2017-05-10T22:18:44.993Z,17.03
2017-05-10T22:21:14.696Z,12.80
2017-05-10T22:23:44.205Z,13.37
2017-05-10T22:26:14.120Z,16.40
2017-05-10T22:28:43.624Z,10.13
2017-05-10T22:31:12.927Z,15.13
2017-05-10T22:33:42.229Z,13.83
2017-05-10T22:36:11.529Z,9.95
2017-05-10T22:38:40.829Z,9.85
2017-05-10T22:41:10.134Z,10.13
2017-05-10T22:43:39.953Z,9.90
2017-05-10T22:46:10.274Z,10.05
2017-05-10T22:48:39.677Z,15.33
2017-05-10T22:51:08.976Z,16.42
2017-05-10T22:53:38.278Z,11.70
2017-05-10T22:56:07.682Z,10.90
2017-05-10T22:58:37.198Z,9.17
2017-05-10T23:01:07.009Z,12.58
2017-05-10T23:03:36.502Z,12.50
2017-05-10T23:06:05.811Z,9.68
2017-05-10T23:08:35.111Z,10.48
2017-05-10T23:11:04.825Z,11.18
2017-05-10T23:13:34.533Z,10.38
2017-05-10T23:16:04.242Z,10.90
2017-05-10T23:18:34.317Z,13.55
2017-05-10T23:21:03.667Z,12.52
2017-05-10T23:23:32.968Z,13.92
2017-05-10T23:26:03.090Z,14.58
2017-05-10T23:28:32.377Z,9.15
2017-05-10T23:31:01.921Z,11.47
2017-05-10T23:33:31.404Z,13.27
2017-05-10T23:36:01.116Z,12.00
2017-05-10T23:38:30.621Z,10.67
2017-05-10T23:41:00.334Z,11.58
2017-05-10T23:43:29.633Z,10.75
2017-05-10T23:45:59.756Z,13.50
2017-05-10T23:48:30.079Z,12.33
2017-05-10T23:50:59.369Z,11.47
2017-05-10T23:53:28.685Z,10.97
2017-05-10T23:55:58.395Z,14.15
2017-05-10T23:58:27.909Z,11.47
